Flight Track Log - Related Links

Times and Time Zones

All times are in EDT time to prevent confusion due to time zone crossing. See the N762NC flight status page for this flight to view local times or setup timezone preferences in your user account.

Time Position Orientation Groundspeed Altitude Reporting Facility
EDT Latitude Longitude Course Direction KTS MPH feet Rate Location/Type
Sat 10:37:55 AM 42.2008 -83.3550 90° East 158 182 1,500  Level Cleveland Center
Sat 10:38:38 AM 42.1608 -83.3550 180° South 231 266 2,300 1,500 Climbing Cleveland Center
Sat 10:39:15 AM 42.1294 -83.3489 172° South 231 266 3,500 1,818 Climbing Cleveland Center
Sat 10:40:17 AM 42.0603 -83.3250 166° South 255 293 5,300 2,081 Climbing Cleveland Center
Sat 10:41:00 AM 42.2167 -82.7075 90° East  Level FlightAware Approximate
Sat 10:41:19 AM 42.0603 -83.2197 90° East 278 320 7,800  Level Cleveland Center
Sat 10:42:00 AM 42.2167 -82.5460 90° East  Level FlightAware Approximate
Sat 10:42:21 AM 42.0897 -83.1036 71° East 291 335 10,000  Level Cleveland Center
Sat 10:43:00 AM 42.2167 -82.3844 90° East  Level FlightAware Approximate
Sat 10:43:23 AM 42.1258 -82.9928 66° East 332 382 11,000  Level Cleveland Center
Sat 10:44:25 AM 42.1631 -82.8692 68° East 360 414 13,500 2,160 Climbing Cleveland Center
Sat 10:45:28 AM 42.2022 -82.7458 67° East 360 414 15,500 1,776 Climbing Cleveland Center
Sat 10:46:30 AM 42.2125 -82.6067 84° East 382 440 17,200 1,694 Climbing Cleveland Center
Sat 10:47:32 AM 42.1986 -82.4267 96° East 400 460 19,000 1,645 Climbing Cleveland Center
Sat 10:48:34 AM 42.1936 -82.2753 93° East 403 464 20,600 1,452 Climbing Cleveland Center
Sat 10:49:36 AM 42.1889 -82.1239 92° East 418 481 22,000 1,306 Climbing Cleveland Center
Sat 10:50:38 AM 42.1125 -81.9942 128° Southeast 440 506 23,300 1,210 Climbing Cleveland Center
Sat 10:51:40 AM 42.0239 -81.8722 134° Southeast 450 518 24,500 1,113 Climbing Cleveland Center
Sat 10:52:42 AM 41.9175 -81.7292 135° Southeast 460 529 25,600 1,113 Climbing Cleveland Center
Sat 10:53:44 AM 41.8286 -81.5958 132° Southeast 470 541 26,800 1,065 Climbing Cleveland Center
Sat 10:54:46 AM 41.7406 -81.4625 131° Southeast 472 543 27,800 968 Climbing Cleveland Center
Sat 10:55:48 AM 41.6508 -81.3286 132° Southeast 474 545 28,800 581 Climbing Cleveland Center
Sat 10:56:50 AM 41.5564 -81.1967 134° Southeast 481 554 29,000 97 Climbing Cleveland Center
Sat 10:57:52 AM 41.4619 -81.0619 133° Southeast 488 562 29,000  Level Cleveland Center
Sat 10:58:54 AM 41.3639 -80.9361 136° Southeast 485 558 29,000  Level Cleveland Center
Sat 10:59:56 AM 41.2625 -80.8125 137° Southeast 486 559 29,000  Level Cleveland Center
Sat 11:00:58 AM 41.1647 -80.6836 135° Southeast 489 563 29,000  Level Cleveland Center
Sat 11:02:00 AM 41.0672 -80.5508 134° Southeast 488 562 29,000  Level Cleveland Center
Sat 11:03:02 AM 40.9761 -80.4206 133° Southeast 483 556 29,000  Level Cleveland Center
Sat 11:04:04 AM 40.8661 -80.2633 133° Southeast 485 558 29,000  Level Cleveland Center
Sat 11:05:06 AM 40.7783 -80.1428 134° Southeast 484 557 29,000  Level Cleveland Center
Sat 11:06:08 AM 40.7061 -79.9808 120° Southeast 479 551 29,000  Level Cleveland Center
Sat 11:07:10 AM 40.6442 -79.8244 118° Southeast 477 549 29,000  Level Cleveland Center
Sat 11:08:12 AM 40.5847 -79.6678 117° Southeast 476 548 29,000  Level Cleveland Center
Sat 11:09:14 AM 40.5364 -79.5053 111° Southeast 475 547 29,000  Level Cleveland Center
Sat 11:10:16 AM 40.5006 -79.3386 106° East 473 544 29,000  Level Cleveland Center
Sat 11:11:18 AM 40.4742 -79.1644 101° East 467 537 29,000  Level Cleveland Center
Sat 11:12:20 AM 40.4411 -78.9631 102° East 475 547 29,000  Level Cleveland Center
Sat 11:13:22 AM 40.4133 -78.7975 102° East 472 543 29,000  Level Cleveland Center
Sat 11:14:23 AM 40.3908 -78.6294 100° East 474 545 29,000 -49 Level Cleveland Center
Sat 11:15:25 AM 40.3728 -78.4614 98° East 472 543 28,900 -919 Descending Cleveland Center
Sat 11:16:27 AM 40.3525 -78.2897 99° East 478 550 27,100 -1,742 Descending Cleveland Center
Sat 11:17:29 AM 40.3347 -78.0819 96° East 484 557 25,300 -1,024 Descending Cleveland Center
Sat 11:18:30 AM 40.3267 -77.9172 94° East 463 533 25,000 -146 Descending Cleveland Center
Sat 11:19:32 AM 40.3186 -77.7544 94° East 455 524 25,000 -532 Level Cleveland Center
Sat 11:20:34 AM 40.2950 -77.5942 101° East 453 521 23,900 -1,140 Descending Cleveland Center
Sat 11:21:33 AM 40.2650 -77.4383 104° East 449 517 22,700 -1,059 Descending New York Center
Sat 11:22:33 AM 40.2331 -77.2611 103° East 454 522 21,800 -1,100 Descending New York Center
Sat 11:23:33 AM 40.2094 -77.1203 102° East 449 517 20,500 -900 Descending New York Center
Sat 11:24:33 AM 40.1886 -76.9608 100° East 444 511 20,000 -300 Descending New York Center
Sat 11:25:33 AM 40.1664 -76.7903 100° East 434 499 19,900 -2,050 Descending New York Center
Sat 11:26:33 AM 40.1592 -76.6403 94° East 428 493 15,900 -3,450 Descending New York Center
Sat 11:27:33 AM 40.1497 -76.4956 95° East 413 475 13,000 -2,400 Descending New York Center
Sat 11:28:33 AM 40.1333 -76.3611 99° East 396 456 11,100 -1,400 Descending New York Center
Sat 11:29:33 AM 40.1194 -76.2569 100° East 344 396 10,200 -950 Descending New York Center
Sat 11:30:33 AM 40.1100 -76.1419 96° East 294 338 9,200 -950 Descending New York Center
Sat 11:31:33 AM 40.1064 -76.0386 93° East 289 333 8,300 -550 Descending New York Center
Sat 11:32:33 AM 40.0961 -75.9403 98° East 283 326 8,100 -300 Descending New York Center
Sat 11:33:33 AM 40.0839 -75.8389 99° East 277 319 7,700 -500 Descending New York Center
Sat 11:34:33 AM 40.0325 -75.7728 135° Southeast 255 293 7,100 -700 Descending New York Center
Sat 11:35:33 AM 39.9767 -75.7144 141° Southeast 261 300 6,300 -850 Descending New York Center
Sat 11:36:33 AM 39.9261 -75.6731 148° Southeast 235 270 5,400 -900 Descending New York Center
Sat 11:37:33 AM 39.8778 -75.6344 148° Southeast 211 243 4,500 -894 Descending New York Center
Sat 11:38:07 AM 39.8500 -75.6167 154° Southeast 194 223 4,000 -660 Descending Philadelphia TRACON
Sat 11:39:13 AM 39.8333 -75.5500 108° East 188 216 3,400 -476 Descending Philadelphia TRACON
Sat 11:40:13 AM 39.8167 -75.4833 108° East 193 222 3,000 -579 Descending Philadelphia TRACON
Sat 11:41:07 AM 39.8333 -75.4167 72° East 184 212 2,300 -895 Descending Philadelphia TRACON
Sat 11:42:07 AM 39.8500 -75.3667 67° East 177 204 1,300 -900 Descending Philadelphia TRACON
Sat 11:43:07 AM 39.8500 -75.3000 90° East 131 151 500 -800 Descending Philadelphia TRACON

Login

Don't have an account? Register now (free) for customized features, flight alerts, and more!